Time;durP1;ratioP1;P1;durP2;ratioP2;P2;SDS_P1;SDS_P2;PMS_P1;PMS_P2;Temp;Humidity;BMP_temperature;BMP_pressure;BME280_temperature;BME280_humidity;BME280_pressure;Samples;Min_cycle;Max_cycle;Signal;HPM_P1;HPM_P2
2023/02/01 00:01:10;;;;;;;2.30;0.30;;;;;;;1.92;95.68;99743.42;106522;1273;24330;-54
2023/02/01 00:03:40;;;;;;;7.10;0.30;;;;;;;1.92;95.59;99735.72;106599;1268;22535;-57
2023/02/01 00:06:12;;;;;;;5.90;0.40;;;;;;;1.93;95.37;99745.52;106508;1273;25360;-54
2023/02/01 00:08:43;;;;;;;1.90;0.50;;;;;;;1.93;95.34;99749.14;106676;1273;22523;-57
2023/02/01 00:11:14;;;;;;;6.60;0.60;;;;;;;1.93;95.10;99744.48;106569;1274;24265;-57
2023/02/01 00:13:45;;;;;;;4.80;0.70;;;;;;;1.92;95.20;99735.48;106597;1267;25756;-54
2023/02/01 00:16:18;;;;;;;12.20;0.40;;;;;;;1.91;95.00;99726.38;106579;1272;26534;-53
2023/02/01 00:18:50;;;;;;;4.80;0.50;;;;;;;1.90;94.78;99721.92;106537;1272;25398;-57
2023/02/01 00:21:23;;;;;;;5.30;0.40;;;;;;;1.90;94.75;99728.61;106611;1274;23176;-56
2023/02/01 00:23:54;;;;;;;4.90;0.30;;;;;;;1.89;94.67;99724.24;106708;1274;23948;-55
2023/02/01 00:26:32;;;;;;;5.00;0.40;;;;;;;1.88;94.67;99726.46;106506;1250;24215;-57
2023/02/01 00:29:04;;;;;;;2.90;0.30;;;;;;;1.86;94.56;99731.08;106714;1274;22522;-57
2023/02/01 00:31:35;;;;;;;11.10;0.60;;;;;;;1.85;94.68;99734.86;106718;1274;25226;-56
2023/02/01 00:34:08;;;;;;;10.90;0.40;;;;;;;1.87;94.91;99734.65;106582;1263;24390;-55
2023/02/01 00:36:39;;;;;;;6.50;0.50;;;;;;;1.90;94.95;99734.36;106639;1266;24238;-57
2023/02/01 00:39:10;;;;;;;8.00;0.50;;;;;;;1.91;94.99;99743.14;106649;1269;22520;-56
2023/02/01 00:41:41;;;;;;;6.00;0.70;;;;;;;1.91;95.03;99739.51;106539;1259;24262;-55
2023/02/01 00:44:12;;;;;;;8.50;0.60;;;;;;;1.92;95.20;99740.81;106648;1272;22663;-56
2023/02/01 00:46:43;;;;;;;4.90;0.50;;;;;;;1.96;95.51;99741.98;106558;1269;22517;-57
2023/02/01 00:49:15;;;;;;;12.40;0.80;;;;;;;2.02;95.68;99743.14;106546;1260;25505;-58
2023/02/01 00:51:45;;;;;;;9.10;0.60;;;;;;;2.08;95.71;99741.80;106631;1266;25231;-55
2023/02/01 00:54:17;;;;;;;6.50;0.50;;;;;;;2.13;95.74;99738.36;106556;1268;22529;-58
2023/02/01 00:56:48;;;;;;;12.30;0.60;;;;;;;2.17;95.65;99741.03;106615;1263;22523;-57
2023/02/01 00:59:19;;;;;;;5.10;0.50;;;;;;;2.21;95.66;99740.30;106522;1274;24331;-56
2023/02/01 01:01:50;;;;;;;10.70;0.80;;;;;;;2.24;95.76;99736.48;106627;1269;24385;-54
2023/02/01 01:04:21;;;;;;;7.80;0.60;;;;;;;2.27;95.74;99735.63;106527;1268;24272;-57
2023/02/01 01:06:52;;;;;;;7.30;0.40;;;;;;;2.30;95.70;99733.11;106483;1274;22650;-56
2023/02/01 01:09:24;;;;;;;4.20;0.70;;;;;;;2.33;95.77;99734.77;106643;1270;22532;-56
2023/02/01 01:11:54;;;;;;;6.20;0.60;;;;;;;2.34;95.80;99739.04;106545;1274;23426;-55
2023/02/01 01:14:25;;;;;;;11.00;0.60;;;;;;;2.36;95.78;99738.84;106562;1274;24265;-57
2023/02/01 01:16:56;;;;;;;4.80;0.60;;;;;;;2.37;95.73;99745.97;106588;1274;22586;-58
2023/02/01 01:19:27;;;;;;;5.00;0.50;;;;;;;2.39;95.74;99741.45;106563;1274;25251;-55
2023/02/01 01:21:58;;;;;;;8.80;1.00;;;;;;;2.40;95.76;99738.04;106646;1274;24255;-56
2023/02/01 01:24:29;;;;;;;5.30;0.60;;;;;;;2.43;95.64;99735.52;106510;1274;24259;-55
2023/02/01 01:27:00;;;;;;;6.90;0.90;;;;;;;2.42;95.54;99735.27;106758;1274;22534;-58
2023/02/01 01:29:32;;;;;;;7.60;0.80;;;;;;;2.43;95.46;99736.84;106778;1260;22533;-58
2023/02/01 01:32:03;;;;;;;4.60;0.60;;;;;;;2.43;95.37;99739.98;106575;1274;22861;-57
2023/02/01 01:34:34;;;;;;;7.70;0.90;;;;;;;2.44;95.39;99740.42;106572;1274;22528;-56
2023/02/01 01:37:05;;;;;;;6.70;0.80;;;;;;;2.45;95.35;99744.02;106531;1274;25521;-57
2023/02/01 01:39:36;;;;;;;11.20;1.10;;;;;;;2.46;95.01;99741.25;106549;1274;22591;-54
2023/02/01 01:42:09;;;;;;;5.80;0.90;;;;;;;2.48;95.00;99740.08;106560;1259;23517;-57
2023/02/01 01:44:59;;;;;;;6.10;0.50;;;;;;;2.51;95.14;99736.40;106561;1269;22544;-55
2023/02/01 01:47:35;;;;;;;5.00;0.60;;;;;;;2.51;94.81;99722.45;106520;1260;25983;-57
2023/02/01 01:50:10;;;;;;;6.70;0.40;;;;;;;2.50;94.41;99726.42;106658;1274;22523;-57
2023/02/01 01:52:43;;;;;;;5.70;0.60;;;;;;;2.51;93.62;99733.88;106707;1269;22527;-57
2023/02/01 01:55:15;;;;;;;6.20;0.40;;;;;;;2.55;92.81;99748.02;106670;1259;22527;-55
2023/02/01 01:57:51;;;;;;;3.10;0.60;;;;;;;2.60;92.45;99746.20;106543;1266;22556;-56
2023/02/01 02:00:23;;;;;;;6.70;0.40;;;;;;;2.64;92.75;99746.50;106668;1267;22514;-58
2023/02/01 02:02:59;;;;;;;3.50;0.50;;;;;;;2.63;92.86;99753.20;106639;1274;25578;-55
2023/02/01 02:05:31;;;;;;;5.60;0.40;;;;;;;2.60;93.09;99751.71;106655;1274;22522;-55
2023/02/01 02:08:02;;;;;;;7.20;0.60;;;;;;;2.56;93.36;99756.23;106605;1274;25301;-57
2023/02/01 02:13:22;;;;;;;7.60;0.70;;;;;;;2.47;93.83;99757.19;106577;1272;22538;-55
2023/02/01 02:16:23;;;;;;;11.10;1.20;;;;;;;2.44;94.34;99753.58;106592;1272;24096;-56
2023/02/01 02:19:10;;;;;;;4.30;0.60;;;;;;;2.42;94.57;99755.30;106660;1269;24349;-56
2023/02/01 02:22:05;;;;;;;3.00;0.60;;;;;;;2.42;94.91;99757.51;106707;1274;22517;-58
2023/02/01 02:24:58;;;;;;;9.70;0.70;;;;;;;2.40;94.95;99752.73;106514;1262;25524;-54
2023/02/01 02:27:47;;;;;;;6.30;0.70;;;;;;;2.40;95.31;99752.05;106649;1273;25185;-54
2023/02/01 02:30:42;;;;;;;3.90;0.90;;;;;;;2.40;95.35;99746.05;106517;1272;24437;-56
2023/02/01 02:33:53;;;;;;;7.20;1.20;;;;;;;2.40;95.39;99747.16;106579;1274;22798;-57
2023/02/01 02:36:34;;;;;;;5.20;0.80;;;;;;;2.41;95.57;99750.76;106627;1273;24216;-56
2023/02/01 02:39:09;;;;;;;9.40;0.70;;;;;;;2.43;95.53;99745.80;106656;1259;22527;-55
2023/02/01 02:47:52;;;;;;;11.90;0.90;;;;;;;2.56;95.25;99749.95;106568;1274;24060;-56
2023/02/01 03:04:45;;;;;;;13.80;1.90;;;;;;;2.75;94.29;99751.90;106601;1266;23017;-56
2023/02/01 03:07:30;;;;;;;14.50;1.50;;;;;;;2.81;93.97;99756.30;106609;1274;24391;-58
2023/02/01 03:10:05;;;;;;;14.70;2.20;;;;;;;2.87;93.83;99755.89;106595;1269;24377;-56
2023/02/01 03:12:57;;;;;;;15.00;1.30;;;;;;;2.90;93.55;99755.95;106977;1272;25620;-57
2023/02/01 03:15:36;;;;;;;17.20;1.30;;;;;;;2.93;93.20;99754.05;106550;1272;22518;-57
2023/02/01 03:18:13;;;;;;;10.30;0.90;;;;;;;2.95;92.89;99756.91;106707;1274;25489;-55
2023/02/01 03:20:49;;;;;;;16.50;1.40;;;;;;;2.97;92.50;99757.09;106638;1273;25267;-54
2023/02/01 03:23:23;;;;;;;14.50;0.90;;;;;;;3.00;92.44;99760.56;106603;1274;24377;-54
2023/02/01 03:25:58;;;;;;;13.00;1.20;;;;;;;3.01;92.27;99761.94;106700;1274;22514;-58
2023/02/01 03:28:32;;;;;;;13.70;1.40;;;;;;;3.02;92.31;99768.91;106949;1269;24263;-56
2023/02/01 03:31:03;;;;;;;16.20;2.00;;;;;;;3.02;92.09;99766.39;106731;1271;22743;-57
2023/02/01 03:33:35;;;;;;;12.90;1.30;;;;;;;3.02;91.84;99768.91;106690;1267;24377;-55
2023/02/01 03:36:16;;;;;;;10.10;1.00;;;;;;;3.02;91.56;99766.18;106516;1273;22523;-54
2023/02/01 03:38:55;;;;;;;6.20;0.80;;;;;;;3.02;91.64;99771.15;106685;1259;25560;-54
2023/02/01 03:41:34;;;;;;;14.00;1.20;;;;;;;2.99;91.56;99767.50;106578;1274;24382;-55
2023/02/01 03:44:13;;;;;;;10.50;1.30;;;;;;;2.99;91.76;99771.21;106636;1274;25277;-56
2023/02/01 03:46:49;;;;;;;12.10;1.70;;;;;;;3.00;91.94;99770.64;106644;1274;22528;-56
2023/02/01 03:49:25;;;;;;;11.40;1.10;;;;;;;3.02;91.83;99769.64;106533;1274;22646;-53
2023/02/01 03:51:59;;;;;;;12.40;1.30;;;;;;;3.03;91.89;99765.41;106619;1268;24346;-57
2023/02/01 03:54:31;;;;;;;15.90;2.20;;;;;;;3.03;91.74;99756.77;106693;1266;22514;-56
2023/02/01 03:57:08;;;;;;;12.60;1.30;;;;;;;2.99;91.54;99751.66;106705;1269;22531;-55
2023/02/01 03:59:42;;;;;;;11.30;1.00;;;;;;;2.98;91.40;99750.45;106509;1272;291263;-57
2023/02/01 04:02:13;;;;;;;15.90;1.10;;;;;;;2.96;91.46;99754.37;106643;1274;23025;-55
2023/02/01 04:04:45;;;;;;;10.10;1.10;;;;;;;2.93;91.42;99748.70;106601;1269;22761;-55
2023/02/01 04:07:17;;;;;;;17.60;1.30;;;;;;;2.91;91.33;99743.55;106626;1274;22984;-55
2023/02/01 04:09:47;;;;;;;13.80;1.40;;;;;;;2.91;91.41;99743.80;106614;1274;24259;-61
2023/02/01 04:12:18;;;;;;;15.10;1.20;;;;;;;2.89;91.36;99737.95;106581;1271;24387;-57
2023/02/01 04:14:49;;;;;;;9.90;0.80;;;;;;;2.87;91.39;99733.84;106562;1265;25649;-57
2023/02/01 04:17:20;;;;;;;12.00;1.90;;;;;;;2.84;91.32;99736.84;106597;1260;24261;-56
2023/02/01 04:19:51;;;;;;;8.90;1.90;;;;;;;2.81;90.95;99734.18;106626;1274;22521;-57
2023/02/01 04:22:22;;;;;;;8.80;0.70;;;;;;;2.79;91.07;99730.30;106678;1272;22601;-59
2023/02/01 04:24:53;;;;;;;11.90;1.30;;;;;;;2.79;90.37;99733.42;106515;1267;22527;-55
2023/02/01 04:27:23;;;;;;;13.10;1.20;;;;;;;2.81;90.77;99726.54;106536;1272;26373;-59
2023/02/01 04:29:55;;;;;;;18.00;1.20;;;;;;;2.79;90.64;99730.52;106639;1274;24274;-57
2023/02/01 04:32:26;;;;;;;13.30;1.40;;;;;;;2.78;90.53;99726.06;106858;1274;22528;-55
2023/02/01 04:34:57;;;;;;;17.80;1.50;;;;;;;2.78;90.34;99724.19;106605;1274;23853;-54
2023/02/01 04:37:28;;;;;;;16.10;1.40;;;;;;;2.79;90.43;99728.03;106566;1256;22536;-59
2023/02/01 04:39:59;;;;;;;9.80;1.00;;;;;;;2.78;90.23;99726.61;106630;1262;22824;-58
2023/02/01 04:42:30;;;;;;;15.00;1.30;;;;;;;2.79;90.05;99723.14;106574;1274;22530;-57
2023/02/01 04:45:01;;;;;;;11.90;1.20;;;;;;;2.79;89.92;99722.97;106540;1274;22677;-54
2023/02/01 04:47:32;;;;;;;13.80;1.40;;;;;;;2.80;89.97;99728.61;106525;1272;22759;-56
2023/02/01 04:50:05;;;;;;;8.20;0.90;;;;;;;2.81;90.09;99726.86;106600;1269;22531;-55
2023/02/01 04:52:36;;;;;;;13.80;1.30;;;;;;;2.81;89.88;99725.52;106612;1274;22583;-56
2023/02/01 04:55:09;;;;;;;7.70;0.80;;;;;;;2.82;89.96;99729.27;106581;1272;25904;-56
2023/02/01 04:57:40;;;;;;;12.30;1.00;;;;;;;2.83;90.00;99728.44;106760;1272;23093;-58
2023/02/01 05:00:13;;;;;;;12.10;1.10;;;;;;;2.87;89.90;99727.38;106587;1274;24211;-57
2023/02/01 05:02:44;;;;;;;15.80;1.30;;;;;;;2.91;89.73;99728.51;106645;1260;22544;-56
2023/02/01 05:05:15;;;;;;;11.00;1.10;;;;;;;2.97;89.90;99724.57;106554;1266;22511;-54
2023/02/01 05:07:48;;;;;;;13.50;1.40;;;;;;;3.00;89.76;99725.34;106646;1274;22533;-57
2023/02/01 05:10:19;;;;;;;16.00;1.70;;;;;;;3.02;89.68;99724.39;106685;1272;23013;-58
2023/02/01 05:15:38;;;;;;;11.50;1.60;;;;;;;3.08;89.44;99730.54;106678;1274;22540;-55
2023/02/01 05:18:09;;;;;;;12.90;1.00;;;;;;;3.11;89.31;99730.02;106578;1272;24003;-55
2023/02/01 05:20:40;;;;;;;11.30;1.60;;;;;;;3.14;89.23;99728.07;106435;1274;25450;-58
2023/02/01 05:23:11;;;;;;;9.10;1.00;;;;;;;3.15;89.02;99729.04;106589;1266;23029;-57
2023/02/01 05:25:42;;;;;;;18.30;1.00;;;;;;;3.18;88.98;99728.14;106639;1272;22601;-55
2023/02/01 05:28:13;;;;;;;14.30;1.20;;;;;;;3.20;88.88;99726.06;107877;1263;24266;-57
2023/02/01 05:30:44;;;;;;;10.00;1.10;;;;;;;3.21;88.87;99727.58;106555;1274;25657;-59
2023/02/01 05:33:15;;;;;;;22.60;1.30;;;;;;;3.24;88.82;99723.16;106523;1266;22527;-59
2023/02/01 05:35:46;;;;;;;9.80;0.90;;;;;;;3.26;88.41;99718.77;106732;1269;22977;-59
2023/02/01 05:38:17;;;;;;;10.40;1.20;;;;;;;3.28;88.53;99714.44;106701;1259;24253;-58
2023/02/01 05:40:49;;;;;;;8.90;1.20;;;;;;;3.30;88.23;99714.16;107008;1274;23573;-58
2023/02/01 05:43:20;;;;;;;12.20;1.70;;;;;;;3.32;88.28;99714.48;107481;1271;22553;-58
2023/02/01 05:45:52;;;;;;;11.10;1.20;;;;;;;3.33;88.18;99712.02;106500;1260;22523;-64
2023/02/01 05:48:23;;;;;;;10.20;1.00;;;;;;;3.33;87.87;99711.13;106642;1261;24298;-59
2023/02/01 05:51:05;;;;;;;9.20;0.90;;;;;;;3.34;87.67;99709.30;106590;1274;24279;-58
2023/02/01 05:53:44;;;;;;;13.00;1.50;;;;;;;3.33;87.28;99705.63;106712;1275;22516;-60
2023/02/01 05:56:18;;;;;;;12.80;1.00;;;;;;;3.34;87.46;99696.61;106575;1275;24479;-59
2023/02/01 05:58:49;;;;;;;8.90;1.00;;;;;;;3.34;87.36;99694.16;106596;1269;22523;-58
2023/02/01 06:01:20;;;;;;;19.10;1.30;;;;;;;3.34;87.16;99697.70;106541;1272;22602;-59
2023/02/01 06:03:51;;;;;;;10.20;1.20;;;;;;;3.33;87.13;99688.05;106500;1261;24302;-59
2023/02/01 06:06:21;;;;;;;14.30;1.10;;;;;;;3.34;87.00;99687.33;106572;1269;22706;-58
2023/02/01 06:08:52;;;;;;;13.20;1.60;;;;;;;3.34;87.24;99685.24;106619;1275;24376;-57
2023/02/01 06:11:23;;;;;;;15.70;2.00;;;;;;;3.35;87.04;99685.46;106623;1271;22790;-59
2023/02/01 06:13:55;;;;;;;17.00;2.10;;;;;;;3.38;87.07;99678.84;106566;1275;22528;-58
2023/02/01 06:16:26;;;;;;;15.10;2.00;;;;;;;3.40;87.21;99673.72;106530;1275;22524;-58
2023/02/01 06:18:58;;;;;;;18.20;1.70;;;;;;;3.42;87.13;99679.86;106527;1275;22544;-58
2023/02/01 06:21:29;;;;;;;18.10;2.50;;;;;;;3.44;87.13;99676.33;106657;1272;22536;-58
2023/02/01 06:24:00;;;;;;;15.70;1.70;;;;;;;3.45;87.03;99677.23;106693;1272;24388;-58
2023/02/01 06:26:31;;;;;;;20.00;1.90;;;;;;;3.47;86.96;99676.61;106643;1275;22531;-60
2023/02/01 06:29:02;;;;;;;15.80;1.50;;;;;;;3.50;86.75;99679.12;106652;1275;24499;-59
2023/02/01 06:31:34;;;;;;;12.30;1.30;;;;;;;3.52;86.72;99678.81;106652;1275;22633;-59
2023/02/01 06:34:05;;;;;;;16.70;3.10;;;;;;;3.54;86.77;99681.44;106645;1275;22541;-58
2023/02/01 06:36:35;;;;;;;21.50;3.30;;;;;;;3.56;86.67;99683.10;106532;1272;22528;-59
2023/02/01 06:39:06;;;;;;;16.20;2.20;;;;;;;3.57;86.90;99683.55;106558;1272;22538;-58
2023/02/01 06:41:37;;;;;;;16.60;1.50;;;;;;;3.58;86.35;99685.80;106577;1275;22523;-59
2023/02/01 06:44:08;;;;;;;12.90;1.40;;;;;;;3.60;86.50;99687.63;106576;1266;22538;-59
2023/02/01 06:46:39;;;;;;;16.00;1.70;;;;;;;3.61;85.96;99688.14;106604;1275;25249;-58
2023/02/01 06:49:10;;;;;;;10.90;1.40;;;;;;;3.65;86.14;99690.30;106528;1269;22574;-60
2023/02/01 06:51:41;;;;;;;13.40;1.30;;;;;;;3.68;86.15;99691.08;106601;1275;22526;-60
2023/02/01 06:54:11;;;;;;;23.50;2.70;;;;;;;3.69;85.88;99692.74;106613;1273;22778;-58
2023/02/01 06:56:43;;;;;;;12.80;2.10;;;;;;;3.71;85.80;99691.82;106596;1274;22633;-59
2023/02/01 06:59:13;;;;;;;15.30;1.90;;;;;;;3.72;85.79;99693.13;106605;1274;22521;-61
2023/02/01 07:01:44;;;;;;;14.40;2.00;;;;;;;3.74;85.49;99699.15;106601;1274;24264;-60
2023/02/01 07:04:16;;;;;;;11.60;0.90;;;;;;;3.76;85.37;99704.59;106552;1275;22540;-60
2023/02/01 07:06:47;;;;;;;14.60;2.00;;;;;;;3.78;85.61;99699.85;106508;1270;22521;-58
2023/02/01 07:09:17;;;;;;;9.90;1.70;;;;;;;3.79;85.37;99699.98;106558;1272;22528;-61
2023/02/01 07:11:48;;;;;;;12.60;1.50;;;;;;;3.80;85.32;99697.66;106619;1272;24264;-59
2023/02/01 07:14:19;;;;;;;16.20;1.40;;;;;;;3.81;85.32;99693.06;106586;1269;23126;-59
2023/02/01 07:16:50;;;;;;;18.40;1.30;;;;;;;3.82;85.08;99694.77;106555;1274;22828;-59
2023/02/01 07:19:21;;;;;;;11.60;1.20;;;;;;;3.84;84.70;99695.34;106563;1268;25369;-60
2023/02/01 07:21:52;;;;;;;15.30;1.60;;;;;;;3.85;84.62;99687.16;106543;1274;23019;-61
2023/02/01 07:24:24;;;;;;;17.00;1.40;;;;;;;3.86;84.73;99690.12;106551;1270;22817;-58
2023/02/01 07:26:54;;;;;;;12.40;1.30;;;;;;;3.87;85.03;99696.88;106704;1269;22536;-59
2023/02/01 07:29:25;;;;;;;12.40;1.50;;;;;;;3.88;84.53;99698.27;106560;1274;23013;-61
2023/02/01 07:31:56;;;;;;;10.10;1.20;;;;;;;3.90;84.44;99692.59;106672;1274;24373;-58
2023/02/01 07:34:27;;;;;;;13.00;1.30;;;;;;;3.90;84.73;99690.23;106582;1274;22816;-59
2023/02/01 07:36:58;;;;;;;10.50;1.30;;;;;;;3.91;84.56;99696.27;106650;1267;22561;-59
2023/02/01 07:39:31;;;;;;;13.30;1.30;;;;;;;3.93;84.41;99696.98;106804;1274;22636;-60
2023/02/01 07:42:02;;;;;;;13.50;1.20;;;;;;;3.94;84.62;99695.30;106751;1274;22527;-60
2023/02/01 07:44:33;;;;;;;16.10;1.30;;;;;;;3.95;84.52;99697.80;106575;1274;25351;-57
2023/02/01 07:47:04;;;;;;;13.60;1.80;;;;;;;3.96;84.54;99697.44;106586;1274;22639;-58
2023/02/01 07:49:35;;;;;;;12.40;1.20;;;;;;;3.96;84.30;99696.65;106620;1274;22527;-59
2023/02/01 07:52:07;;;;;;;15.60;1.80;;;;;;;3.97;84.33;99692.12;106524;1272;22527;-59
2023/02/01 07:54:38;;;;;;;9.90;1.20;;;;;;;3.97;84.37;99691.92;106569;1270;24283;-58
2023/02/01 07:57:11;;;;;;;10.50;1.40;;;;;;;3.99;84.39;99687.00;106540;1272;25317;-59
2023/02/01 08:01:19;;;;;;;11.10;1.40;;;;;;;4.00;84.44;99682.30;106672;1270;22656;-59
2023/02/01 08:02:34;;;;;;;12.80;1.10;;;;;;;4.02;84.29;99685.05;106622;1259;22539;-59
2023/02/01 08:05:05;;;;;;;16.70;1.70;;;;;;;4.04;84.57;99683.10;106722;1274;22530;-59
2023/02/01 08:07:37;;;;;;;10.90;1.20;;;;;;;4.05;84.53;99687.02;106891;1274;26535;-58
2023/02/01 08:10:11;;;;;;;16.60;1.40;;;;;;;4.07;84.44;99686.24;106811;1274;22542;-59
2023/02/01 08:12:42;;;;;;;10.40;1.10;;;;;;;4.07;84.44;99684.11;106824;1274;22622;-59
2023/02/01 08:15:14;;;;;;;9.10;1.50;;;;;;;4.08;84.40;99682.81;106573;1273;22602;-60
2023/02/01 08:17:49;;;;;;;9.20;0.90;;;;;;;4.08;84.54;99683.27;106790;1272;25344;-60
2023/02/01 08:20:22;;;;;;;11.30;1.70;;;;;;;4.07;84.39;99676.13;106702;1273;23955;-60
2023/02/01 08:22:53;;;;;;;15.30;1.10;;;;;;;4.07;84.28;99678.73;106708;1274;24254;-60
2023/02/01 08:25:25;;;;;;;17.30;2.10;;;;;;;4.07;84.50;99677.08;106658;1271;22531;-58
2023/02/01 08:27:56;;;;;;;15.80;1.40;;;;;;;4.08;84.43;99676.95;106800;1268;22676;-57
2023/02/01 08:30:28;;;;;;;11.80;1.40;;;;;;;4.09;84.58;99678.58;106706;1269;22536;-59
2023/02/01 08:33:00;;;;;;;12.40;1.20;;;;;;;4.10;84.56;99670.10;106686;1273;22521;-61
2023/02/01 08:35:31;;;;;;;16.20;1.40;;;;;;;4.12;84.57;99672.26;106650;1274;23488;-61
2023/02/01 08:38:02;;;;;;;15.30;1.40;;;;;;;4.14;84.66;99669.19;106626;1275;22726;-60
2023/02/01 08:40:34;;;;;;;16.50;1.30;;;;;;;4.16;84.81;99662.46;106683;1267;22557;-60
2023/02/01 08:43:05;;;;;;;8.90;1.40;;;;;;;4.21;84.91;99659.23;106603;1274;25354;-60
2023/02/01 08:45:35;;;;;;;12.60;1.20;;;;;;;4.24;84.82;99658.07;106641;1274;24379;-59
2023/02/01 08:48:07;;;;;;;12.50;1.90;;;;;;;4.28;84.45;99657.33;106579;1275;23187;-60
2023/02/01 08:50:39;;;;;;;15.60;1.70;;;;;;;4.29;84.55;99654.88;106670;1274;22538;-58
2023/02/01 08:53:12;;;;;;;13.10;1.40;;;;;;;4.32;83.92;99667.59;106740;1260;24218;-60
2023/02/01 08:55:43;;;;;;;18.10;2.30;;;;;;;4.34;84.48;99653.29;106656;1270;24079;-60
2023/02/01 08:58:14;;;;;;;10.60;1.20;;;;;;;4.37;84.26;99656.19;106596;1268;22543;-60
2023/02/01 09:00:45;;;;;;;22.10;2.90;;;;;;;4.39;84.06;99655.61;106567;1269;22527;-58
2023/02/01 09:03:16;;;;;;;10.30;1.50;;;;;;;4.41;84.14;99660.45;106578;1274;24376;-61
2023/02/01 09:05:47;;;;;;;10.20;1.10;;;;;;;4.44;84.27;99660.35;106622;1269;24372;-58
2023/02/01 09:08:19;;;;;;;12.40;1.20;;;;;;;4.45;84.09;99668.43;106588;1274;25355;-59
2023/02/01 09:10:51;;;;;;;12.60;1.30;;;;;;;4.44;84.34;99670.92;106754;1274;22527;-60
2023/02/01 09:13:22;;;;;;;9.60;1.30;;;;;;;4.40;84.92;99676.27;106546;1272;25354;-58
2023/02/01 09:15:54;;;;;;;14.90;1.20;;;;;;;4.37;85.05;99671.32;106867;1271;24323;-60
2023/02/01 09:18:25;;;;;;;7.60;1.80;;;;;;;4.36;85.37;99670.68;106541;1274;23025;-59
2023/02/01 09:20:56;;;;;;;16.30;1.70;;;;;;;4.34;85.53;99678.24;106641;1268;22873;-59
2023/02/01 09:23:27;;;;;;;16.80;1.50;;;;;;;4.30;85.61;99675.63;106582;1274;22565;-60
2023/02/01 09:26:01;;;;;;;17.20;1.90;;;;;;;4.27;85.82;99669.90;106618;1274;22543;-60
2023/02/01 09:28:32;;;;;;;7.50;1.10;;;;;;;4.23;85.86;99668.86;106788;1270;22528;-60
2023/02/01 09:31:04;;;;;;;12.80;1.40;;;;;;;4.22;85.92;99667.41;106684;1268;25362;-60
2023/02/01 09:33:35;;;;;;;12.60;1.30;;;;;;;4.21;85.92;99670.04;106676;1274;25249;-60
2023/02/01 09:36:07;;;;;;;15.30;2.60;;;;;;;4.22;86.12;99667.97;106657;1272;22527;-59
2023/02/01 09:38:38;;;;;;;9.90;1.20;;;;;;;4.23;86.18;99669.39;106655;1270;22615;-61
2023/02/01 09:41:27;;;;;;;14.50;1.70;;;;;;;4.26;85.83;99663.91;106682;1261;22544;-60
2023/02/01 09:44:07;;;;;;;17.30;1.70;;;;;;;4.29;85.54;99665.39;106871;1273;22524;-61
2023/02/01 09:46:38;;;;;;;15.70;2.40;;;;;;;4.33;85.38;99663.04;106804;1274;24244;-60
2023/02/01 09:49:17;;;;;;;12.30;1.10;;;;;;;4.36;85.24;99663.63;106755;1265;25392;-60
2023/02/01 09:51:51;;;;;;;5.90;1.10;;;;;;;4.38;85.48;99660.64;106668;1270;22636;-59
2023/02/01 09:54:24;;;;;;;13.40;1.20;;;;;;;4.43;85.30;99660.71;106646;1274;22527;-59
2023/02/01 09:57:01;;;;;;;6.90;0.80;;;;;;;4.47;85.46;99659.75;106576;1273;23201;-59
2023/02/01 09:59:39;;;;;;;5.30;0.60;;;;;;;4.51;85.44;99663.86;106621;1274;22712;-62
2023/02/01 10:02:16;;;;;;;12.10;0.90;;;;;;;4.54;85.10;99652.69;106876;1271;22522;-58
2023/02/01 10:04:48;;;;;;;10.30;0.60;;;;;;;4.57;84.98;99651.89;106633;1274;24423;-59
2023/02/01 10:07:29;;;;;;;12.10;1.60;;;;;;;4.58;85.10;99645.01;106654;1267;23017;-59
2023/02/01 10:10:07;;;;;;;13.60;1.80;;;;;;;4.62;84.98;99643.32;106902;1257;24345;-59
2023/02/01 10:13:09;;;;;;;10.70;1.80;;;;;;;4.63;84.86;99642.70;106928;1274;23204;-60
2023/02/01 10:15:54;;;;;;;16.80;1.90;;;;;;;4.65;84.60;99643.52;106625;1267;22530;-59
2023/02/01 10:18:43;;;;;;;9.00;1.50;;;;;;;4.65;84.63;99637.02;106673;1268;23680;-58
2023/02/01 10:21:27;;;;;;;6.60;1.00;;;;;;;4.68;84.51;99640.21;106572;1275;24380;-59
2023/02/01 10:24:12;;;;;;;7.70;0.90;;;;;;;4.68;84.22;99635.08;106645;1274;22550;-60
2023/02/01 10:26:51;;;;;;;7.40;0.90;;;;;;;4.69;84.63;99633.71;106737;1274;24339;-59
2023/02/01 10:29:27;;;;;;;7.70;0.80;;;;;;;4.70;84.66;99629.80;106698;1272;24329;-59
2023/02/01 10:31:59;;;;;;;15.20;1.00;;;;;;;4.71;84.46;99626.61;106605;1274;25309;-60
2023/02/01 10:34:35;;;;;;;7.70;1.10;;;;;;;4.72;84.46;99615.98;106556;1273;22655;-59
2023/02/01 10:37:19;;;;;;;4.70;0.70;;;;;;;4.74;84.37;99618.02;106753;1274;22687;-62
2023/02/01 10:39:53;;;;;;;14.70;1.00;;;;;;;4.76;84.08;99617.71;106714;1261;22530;-60
2023/02/01 10:42:27;;;;;;;6.90;0.80;;;;;;;4.76;84.29;99614.00;106552;1275;22550;-58
2023/02/01 10:45:03;;;;;;;10.90;1.00;;;;;;;4.76;83.96;99606.66;106677;1261;24200;-58
2023/02/01 10:47:34;;;;;;;8.90;1.00;;;;;;;4.76;83.66;99604.82;106802;1270;24370;-60
2023/02/01 10:50:16;;;;;;;10.80;1.60;;;;;;;4.77;83.55;99607.49;106660;1274;25480;-58
2023/02/01 10:52:52;;;;;;;9.10;1.30;;;;;;;4.77;83.59;99601.55;106603;1274;23812;-59
2023/02/01 10:55:33;;;;;;;12.90;1.40;;;;;;;4.79;83.82;99592.86;106676;1273;25304;-62
2023/02/01 10:58:08;;;;;;;13.50;1.50;;;;;;;4.81;83.88;99592.47;106608;1273;22601;-60
2023/02/01 11:00:47;;;;;;;13.20;1.50;;;;;;;4.81;83.37;99592.56;106645;1260;25281;-61
2023/02/01 11:03:39;;;;;;;14.40;1.30;;;;;;;4.81;83.44;99586.14;106638;1274;23155;-60
2023/02/01 11:06:27;;;;;;;9.40;1.20;;;;;;;4.81;83.67;99584.17;106595;1270;24251;-59
2023/02/01 11:08:59;;;;;;;9.20;1.50;;;;;;;4.82;83.39;99584.39;106706;1274;24380;-59
2023/02/01 11:11:30;;;;;;;9.40;1.20;;;;;;;4.82;83.72;99578.27;106668;1273;25775;-59
2023/02/01 11:14:14;;;;;;;7.40;1.20;;;;;;;4.82;83.50;99571.58;106740;1274;22531;-59
2023/02/01 11:16:51;;;;;;;9.50;1.60;;;;;;;4.80;83.84;99571.56;106734;1267;25294;-58
2023/02/01 11:19:22;;;;;;;9.90;1.40;;;;;;;4.77;84.21;99573.42;106635;1260;22794;-60
2023/02/01 11:21:54;;;;;;;7.40;1.20;;;;;;;4.73;84.43;99567.27;106633;1274;24383;-59
2023/02/01 11:24:28;;;;;;;9.40;1.20;;;;;;;4.69;84.94;99565.94;106562;1274;22528;-58
2023/02/01 11:27:02;;;;;;;13.70;1.70;;;;;;;4.65;85.25;99557.72;106935;1263;22799;-60
2023/02/01 11:29:39;;;;;;;9.30;1.10;;;;;;;4.62;85.53;99557.44;106816;1260;25354;-59
2023/02/01 11:32:13;;;;;;;9.70;1.50;;;;;;;4.59;85.48;99552.19;106785;1274;25362;-60
2023/02/01 11:34:47;;;;;;;10.70;1.40;;;;;;;4.55;85.72;99551.71;106649;1274;22543;-59
2023/02/01 11:37:20;;;;;;;7.20;1.10;;;;;;;4.51;86.08;99549.21;106665;1273;23398;-59
2023/02/01 11:39:58;;;;;;;8.10;1.00;;;;;;;4.46;86.20;99542.08;106655;1272;22559;-60
2023/02/01 11:42:30;;;;;;;8.30;1.10;;;;;;;4.41;86.45;99540.58;106712;1260;25362;-59
2023/02/01 11:45:19;;;;;;;4.60;0.80;;;;;;;4.38;86.68;99528.55;106641;1267;22619;-61
2023/02/01 11:47:55;;;;;;;6.10;0.90;;;;;;;4.37;86.81;99535.39;106856;1267;22534;-59
2023/02/01 11:50:39;;;;;;;7.30;1.10;;;;;;;4.35;87.02;99533.09;106642;1267;22528;-60
2023/02/01 11:53:26;;;;;;;5.50;1.10;;;;;;;4.35;86.96;99522.36;106787;1260;23155;-57
2023/02/01 11:56:09;;;;;;;8.60;1.00;;;;;;;4.35;87.09;99525.13;106918;1274;22705;-60
2023/02/01 11:59:02;;;;;;;8.90;0.90;;;;;;;4.33;87.04;99518.55;106655;1274;22553;-60
2023/02/01 12:02:00;;;;;;;8.90;0.90;;;;;;;4.33;87.10;99518.02;106600;1274;25268;-60
2023/02/01 12:05:08;;;;;;;6.90;0.90;;;;;;;4.31;87.36;99514.93;106127;1279;22988;-58
2023/02/01 12:07:53;;;;;;;5.10;0.70;;;;;;;4.27;87.59;99511.48;105931;1285;22582;-60
2023/02/01 12:10:35;;;;;;;5.60;0.90;;;;;;;4.23;87.98;99509.23;105839;1277;22564;-59
2023/02/01 12:13:19;;;;;;;8.10;1.20;;;;;;;4.18;88.19;99507.83;105748;1280;24399;-60
2023/02/01 12:16:01;;;;;;;5.80;0.90;;;;;;;4.15;88.52;99507.77;105718;1285;22559;-62
2023/02/01 12:19:02;;;;;;;8.40;1.30;;;;;;;4.10;88.71;99504.52;105801;1285;22566;-60
2023/02/01 12:21:54;;;;;;;7.70;0.90;;;;;;;4.07;88.93;99504.56;105740;1285;24405;-59
2023/02/01 12:24:49;;;;;;;5.90;1.00;;;;;;;4.04;89.27;99504.30;105698;1281;24282;-58
2023/02/01 12:27:41;;;;;;;5.80;1.00;;;;;;;4.03;89.30;99503.87;106004;1285;24410;-60
2023/02/01 12:30:37;;;;;;;5.70;0.70;;;;;;;4.03;89.41;99506.05;105679;1284;24224;-60